Time;durP1;ratioP1;P1;durP2;ratioP2;P2;SDS_P1;SDS_P2;PMS_P1;PMS_P2;Temp;Humidity;BMP_temperature;BMP_pressure;BME280_temperature;BME280_humidity;BME280_pressure;Samples;Min_cycle;Max_cycle;Signal;HPM_P1;HPM_P2
2022/09/12 00:01:04;;;;;;;5.55;4.10;;;22.40;63.90;;;;;;5096199;28;20085;-89
2022/09/12 00:03:30;;;;;;;5.65;4.50;;;22.40;63.80;;;;;;5097200;28;20043;-89
2022/09/12 00:05:55;;;;;;;5.80;4.40;;;22.70;63.50;;;;;;5096921;28;20012;-87
2022/09/12 00:08:21;;;;;;;6.65;4.45;;;22.60;63.20;;;;;;5078350;28;20031;-82
2022/09/12 00:10:47;;;;;;;6.85;4.50;;;22.60;63.30;;;;;;5082518;28;20058;-84
2022/09/12 00:13:12;;;;;;;7.35;4.70;;;22.50;63.80;;;;;;5091898;28;20028;-94
2022/09/12 00:15:40;;;;;;;7.90;4.18;;;22.40;63.60;;;;;;5078520;28;20035;-77
2022/09/12 00:18:08;;;;;;;6.28;4.38;;;22.50;63.00;;;;;;5078146;28;20028;-85
2022/09/12 00:20:34;;;;;;;5.47;3.80;;;22.60;63.00;;;;;;5096906;28;20024;-79
2022/09/12 00:23:00;;;;;;;6.10;4.10;;;22.40;63.10;;;;;;5096063;28;20055;-84
2022/09/12 00:25:26;;;;;;;6.13;4.20;;;22.50;63.00;;;;;;5096335;28;20494;-85
2022/09/12 00:27:52;;;;;;;5.15;3.90;;;22.20;63.20;;;;;;5095761;28;20058;-83
2022/09/12 00:30:18;;;;;;;5.25;3.97;;;22.10;63.90;;;;;;5095806;28;20058;-76
2022/09/12 00:32:43;;;;;;;6.25;4.00;;;22.10;63.70;;;;;;5077243;28;20059;-82
2022/09/12 00:35:09;;;;;;;6.38;4.22;;;22.30;63.10;;;;;;5077331;28;20035;-77
2022/09/12 00:37:35;;;;;;;5.90;3.97;;;22.40;62.80;;;;;;5094664;28;20020;-81
2022/09/12 00:40:01;;;;;;;5.03;3.67;;;22.30;63.00;;;;;;5066019;28;20032;-85
2022/09/12 00:42:27;;;;;;;7.97;4.20;;;22.50;62.40;;;;;;5069744;28;20457;-85
2022/09/12 00:44:52;;;;;;;6.55;4.60;;;22.40;62.40;;;;;;5095697;28;20028;-84
2022/09/12 00:47:20;;;;;;;5.93;4.03;;;22.30;62.60;;;;;;5077756;28;20024;-86
2022/09/12 00:50:02;;;;;;;5.28;3.95;;;22.30;62.10;;;;;;5076853;28;20548;-78
2022/09/12 00:52:29;;;;;;;5.95;4.00;;;22.30;63.00;;;;;;5089904;28;20024;-78
2022/09/12 00:54:58;;;;;;;5.15;3.70;;;22.20;63.00;;;;;;5078013;28;20541;-90
2022/09/12 00:57:31;;;;;;;7.47;4.00;;;22.10;63.10;;;;;;5077759;28;20027;-89
2022/09/12 01:00:19;;;;;;;6.88;4.10;;;22.00;63.20;;;;;;5095061;28;20035;-77
2022/09/12 01:02:50;;;;;;;7.20;4.43;;;21.80;64.00;;;;;;5094622;28;20047;-76
2022/09/12 01:05:16;;;;;;;7.18;4.72;;;21.80;64.60;;;;;;5093769;28;20024;-87
2022/09/12 01:07:43;;;;;;;5.93;4.35;;;21.90;63.70;;;;;;5092399;28;20025;-92
2022/09/12 01:10:10;;;;;;;8.10;4.50;;;22.00;64.00;;;;;;5095341;28;20028;-76
2022/09/12 01:12:39;;;;;;;5.88;4.00;;;22.10;63.30;;;;;;5094475;28;20082;-79
2022/09/12 01:15:06;;;;;;;6.68;4.30;;;22.10;63.40;;;;;;5095268;28;20074;-82
2022/09/12 01:18:06;;;;;;;5.78;4.50;;;22.00;63.90;;;;;;5077330;28;20122;-86
2022/09/12 01:20:47;;;;;;;6.10;4.28;;;21.80;64.10;;;;;;4993644;28;20042;-84
2022/09/12 01:23:30;;;;;;;7.68;4.40;;;21.60;64.30;;;;;;4994180;28;20154;-81
2022/09/12 01:25:58;;;;;;;6.00;3.90;;;21.60;64.60;;;;;;4993290;28;20398;-83
2022/09/12 01:28:45;;;;;;;7.65;4.80;;;21.50;64.20;;;;;;4992820;28;20125;-86
2022/09/12 01:31:22;;;;;;;7.57;4.20;;;21.50;64.60;;;;;;4994142;28;20034;-82
2022/09/12 01:33:59;;;;;;;6.50;4.82;;;21.70;64.00;;;;;;4994091;28;20050;-79
2022/09/12 01:36:37;;;;;;;7.25;5.20;;;21.60;64.00;;;;;;4993885;28;20432;-89
2022/09/12 01:39:13;;;;;;;5.63;4.00;;;21.70;64.40;;;;;;4993499;28;20022;-83
2022/09/12 01:42:14;;;;;;;5.28;4.20;;;21.60;63.80;;;;;;4994805;28;20078;-81
2022/09/12 01:44:45;;;;;;;5.30;4.45;;;21.60;64.00;;;;;;5008567;28;20073;-78
2022/09/12 01:47:18;;;;;;;5.95;4.40;;;21.70;64.30;;;;;;4993481;28;20026;-80
2022/09/12 01:49:59;;;;;;;5.90;4.25;;;21.80;64.00;;;;;;5009220;28;20376;-79
2022/09/12 01:52:37;;;;;;;5.18;4.13;;;22.20;63.10;;;;;;4993235;28;20408;-77
2022/09/12 01:55:29;;;;;;;5.55;4.20;;;22.40;62.10;;;;;;5002130;28;20111;-86
2022/09/12 01:58:22;;;;;;;5.88;4.22;;;22.50;61.60;;;;;;5068717;28;20036;-83
2022/09/12 02:01:01;;;;;;;6.35;4.47;;;22.50;61.40;;;;;;5065595;28;20043;-81
2022/09/12 02:03:38;;;;;;;6.22;4.32;;;22.30;62.20;;;;;;5087394;28;20479;-79
2022/09/12 02:06:22;;;;;;;5.97;4.40;;;22.30;62.70;;;;;;5093571;28;20020;-84
2022/09/12 02:08:57;;;;;;;7.60;4.55;;;22.30;62.20;;;;;;5078557;28;20020;-82
2022/09/12 02:11:23;;;;;;;6.35;4.35;;;22.00;62.90;;;;;;5094280;28;20016;-77
2022/09/12 02:13:56;;;;;;;5.55;4.55;;;22.10;62.90;;;;;;5094554;28;20424;-80
2022/09/12 02:16:35;;;;;;;5.93;4.63;;;22.30;62.60;;;;;;5093935;28;20035;-77
2022/09/12 02:19:13;;;;;;;6.03;4.70;;;22.30;62.10;;;;;;5092372;28;20024;-78
2022/09/12 02:21:44;;;;;;;6.50;4.40;;;22.60;61.90;;;;;;5094618;28;20023;-81
2022/09/12 02:24:13;;;;;;;7.25;4.50;;;22.30;62.60;;;;;;5092703;28;20043;-77
2022/09/12 02:27:11;;;;;;;7.82;4.18;;;22.30;62.30;;;;;;5093916;28;20019;-76
2022/09/12 02:29:37;;;;;;;7.40;5.03;;;22.40;61.80;;;;;;5058385;28;20059;-85
2022/09/12 02:32:37;;;;;;;7.65;5.20;;;22.30;62.20;;;;;;5093635;28;20399;-79
2022/09/12 02:35:12;;;;;;;6.53;5.00;;;22.00;63.10;;;;;;5063542;28;20039;-77
2022/09/12 02:37:47;;;;;;;7.85;4.97;;;21.90;63.30;;;;;;5093059;28;20512;-77
2022/09/12 02:40:13;;;;;;;7.50;5.22;;;21.70;64.10;;;;;;5088633;28;20028;-84
2022/09/12 02:42:39;;;;;;;7.78;5.53;;;21.50;64.30;;;;;;5072061;28;20399;-87
2022/09/12 02:45:06;;;;;;;7.20;5.40;;;21.70;63.70;;;;;;5075255;28;20024;-86
2022/09/12 02:47:52;;;;;;;6.90;5.63;;;21.70;63.50;;;;;;5093451;28;20028;-82
2022/09/12 02:50:18;;;;;;;9.30;6.43;;;21.50;64.30;;;;;;5075548;28;20040;-84
2022/09/12 02:52:45;;;;;;;8.13;6.10;;;21.40;64.20;;;;;;5075375;28;20030;-87
2022/09/12 02:55:12;;;;;;;10.25;6.18;;;21.40;64.90;;;;;;5094271;28;20024;-85
2022/09/12 02:57:38;;;;;;;7.35;5.50;;;21.40;64.40;;;;;;5074351;28;20028;-83
2022/09/12 03:00:05;;;;;;;7.75;5.88;;;21.40;65.00;;;;;;5094011;28;20032;-79
2022/09/12 03:03:16;;;;;;;7.18;5.90;;;21.70;63.70;;;;;;5091316;28;20514;-79
2022/09/12 03:05:58;;;;;;;7.47;5.82;;;21.50;64.40;;;;;;5033296;28;20037;-86
2022/09/12 03:08:37;;;;;;;9.02;5.88;;;21.40;64.40;;;;;;5024914;28;20033;-82
2022/09/12 03:11:21;;;;;;;8.38;6.03;;;21.50;64.50;;;;;;5049152;28;20029;-81
2022/09/12 03:13:50;;;;;;;7.63;5.60;;;21.50;64.40;;;;;;5050157;28;20040;-81
2022/09/12 03:16:39;;;;;;;7.80;5.20;;;21.50;64.40;;;;;;5051496;28;20446;-89
2022/09/12 03:19:12;;;;;;;7.93;6.07;;;21.80;63.70;;;;;;5036047;28;20029;-87
2022/09/12 03:22:02;;;;;;;6.85;5.50;;;21.80;63.90;;;;;;5014719;28;20033;-76
2022/09/12 03:24:31;;;;;;;8.05;5.07;;;22.00;63.40;;;;;;5048516;28;20053;-77
2022/09/12 03:27:09;;;;;;;7.35;5.80;;;22.00;62.60;;;;;;5050554;28;20127;-77
2022/09/12 03:29:37;;;;;;;6.95;5.53;;;21.80;63.60;;;;;;5038557;28;20063;-79
2022/09/12 03:32:02;;;;;;;8.13;4.82;;;21.90;62.90;;;;;;5033940;28;20104;-83
2022/09/12 03:34:28;;;;;;;6.45;5.00;;;21.70;63.60;;;;;;5035956;28;20179;-79
2022/09/12 03:36:54;;;;;;;6.38;4.75;;;21.70;63.60;;;;;;5054083;28;20105;-81
2022/09/12 03:39:23;;;;;;;7.50;5.10;;;21.90;62.80;;;;;;5038283;28;20028;-78
2022/09/12 03:41:59;;;;;;;7.93;5.10;;;21.90;62.30;;;;;;5060664;28;20051;-81
2022/09/12 03:44:25;;;;;;;7.38;5.35;;;21.70;62.70;;;;;;5096201;28;20040;-84
2022/09/12 03:46:51;;;;;;;6.78;5.18;;;21.60;63.70;;;;;;5096725;28;20024;-77
2022/09/12 03:49:17;;;;;;;7.15;5.00;;;21.70;63.50;;;;;;5096182;28;20116;-78
2022/09/12 03:51:43;;;;;;;8.38;5.95;;;22.00;62.90;;;;;;5097446;28;20467;-80
2022/09/12 03:54:09;;;;;;;10.88;5.97;;;22.00;62.40;;;;;;5078250;28;20036;-77
2022/09/12 03:56:36;;;;;;;8.98;6.38;;;21.80;63.20;;;;;;5079492;28;20497;-81
2022/09/12 03:59:05;;;;;;;8.35;6.50;;;21.60;63.90;;;;;;5077737;28;20463;-78
2022/09/12 04:01:31;;;;;;;7.68;5.93;;;21.80;63.50;;;;;;5078250;28;20027;-77
2022/09/12 04:03:56;;;;;;;11.07;5.85;;;21.90;63.40;;;;;;5077355;28;20051;-77
2022/09/12 04:06:22;;;;;;;7.13;5.40;;;21.80;63.40;;;;;;5078167;28;20428;-77
2022/09/12 04:08:50;;;;;;;7.70;5.53;;;21.70;63.60;;;;;;5095106;28;20493;-78
2022/09/12 04:11:17;;;;;;;9.20;6.05;;;21.60;63.60;;;;;;5091686;28;20025;-81
2022/09/12 04:13:44;;;;;;;8.68;6.07;;;21.50;63.60;;;;;;5077516;28;20123;-86
2022/09/12 04:16:11;;;;;;;7.55;5.63;;;21.50;63.40;;;;;;5067772;28;20098;-84
2022/09/12 04:18:37;;;;;;;7.82;5.70;;;21.40;64.30;;;;;;5087546;28;20107;-85
2022/09/12 04:21:04;;;;;;;9.40;6.32;;;21.50;63.70;;;;;;5071954;28;20093;-83
2022/09/12 04:23:30;;;;;;;9.43;6.30;;;21.60;63.70;;;;;;5072680;28;20059;-87
2022/09/12 04:25:57;;;;;;;8.43;5.72;;;21.70;63.20;;;;;;5077859;28;20455;-90
2022/09/12 04:28:24;;;;;;;7.65;5.72;;;21.80;62.90;;;;;;5077163;28;20031;-83
2022/09/12 04:30:50;;;;;;;9.85;5.75;;;21.90;62.70;;;;;;5078432;28;20066;-83
2022/09/12 04:33:17;;;;;;;8.30;5.47;;;21.80;62.40;;;;;;5076976;28;20471;-80
2022/09/12 04:35:44;;;;;;;7.88;5.85;;;21.80;62.50;;;;;;5073987;28;20378;-81
2022/09/12 04:38:10;;;;;;;7.97;5.65;;;21.80;62.40;;;;;;5077005;28;20176;-86
2022/09/12 04:40:36;;;;;;;8.00;5.80;;;21.80;62.60;;;;;;5077240;28;20110;-82
2022/09/12 04:43:02;;;;;;;6.22;5.00;;;22.00;62.80;;;;;;5091303;28;20039;-77
2022/09/12 04:45:27;;;;;;;8.55;5.60;;;22.20;62.00;;;;;;5074675;28;20518;-77
2022/09/12 04:47:53;;;;;;;7.72;5.32;;;22.30;61.80;;;;;;5084471;28;20028;-83
2022/09/12 04:50:19;;;;;;;6.35;5.05;;;22.30;61.50;;;;;;5081825;28;20390;-79
2022/09/12 04:52:52;;;;;;;7.50;5.50;;;22.30;61.50;;;;;;5058093;28;20051;-87
2022/09/12 04:55:18;;;;;;;9.57;6.32;;;22.00;62.50;;;;;;5083214;28;20031;-78
2022/09/12 04:57:43;;;;;;;8.32;5.20;;;22.00;62.70;;;;;;5082428;28;20463;-90
2022/09/12 05:00:13;;;;;;;7.53;5.60;;;22.00;62.60;;;;;;5086427;28;20047;-83
2022/09/12 05:02:42;;;;;;;7.90;5.80;;;22.10;62.30;;;;;;5074166;28;20044;-86
2022/09/12 05:05:10;;;;;;;9.45;6.32;;;22.40;61.90;;;;;;5096162;28;20028;-90
2022/09/12 05:07:36;;;;;;;8.35;5.85;;;22.50;61.70;;;;;;5078072;28;20123;-85
2022/09/12 05:10:03;;;;;;;14.70;8.80;;;22.30;62.10;;;;;;5062324;28;20115;-82
2022/09/12 05:12:29;;;;;;;7.32;5.72;;;21.90;63.00;;;;;;5078315;28;20027;-78
2022/09/12 05:14:55;;;;;;;8.10;5.97;;;21.90;63.20;;;;;;5077971;28;20097;-89
2022/09/12 05:17:21;;;;;;;7.85;5.85;;;21.90;63.10;;;;;;5095704;28;20111;-85
2022/09/12 05:19:47;;;;;;;10.13;6.35;;;22.00;63.10;;;;;;5082433;28;20027;-89
2022/09/12 05:22:12;;;;;;;9.75;6.38;;;22.10;62.90;;;;;;5075329;28;20029;-81
2022/09/12 05:24:41;;;;;;;12.38;5.88;;;22.20;62.60;;;;;;5082657;28;20044;-81
2022/09/12 05:27:10;;;;;;;9.13;6.50;;;21.70;63.40;;;;;;5076834;28;20044;-81
2022/09/12 05:29:36;;;;;;;8.68;6.40;;;21.80;63.50;;;;;;5072707;28;20027;-82
2022/09/12 05:32:02;;;;;;;7.50;5.60;;;21.80;63.10;;;;;;5091124;28;20028;-79
2022/09/12 05:34:28;;;;;;;8.93;6.30;;;21.80;63.30;;;;;;5063506;28;20021;-80
2022/09/12 05:36:53;;;;;;;8.60;5.90;;;22.00;63.50;;;;;;5086655;28;20027;-79
2022/09/12 05:39:19;;;;;;;8.50;6.03;;;21.80;63.30;;;;;;5068073;28;20158;-83
2022/09/12 05:41:45;;;;;;;8.65;5.90;;;21.80;63.50;;;;;;5073706;28;20093;-84
2022/09/12 05:44:13;;;;;;;9.18;6.47;;;21.80;63.50;;;;;;5068014;28;20051;-82
2022/09/12 05:46:41;;;;;;;7.50;5.50;;;21.90;63.80;;;;;;5074701;28;20502;-82
2022/09/12 05:49:12;;;;;;;7.95;5.32;;;22.10;63.20;;;;;;5060811;28;20032;-81
2022/09/12 05:51:40;;;;;;;8.93;5.70;;;22.10;62.80;;;;;;5082351;28;20506;-85
2022/09/12 05:54:08;;;;;;;7.95;5.70;;;22.20;63.10;;;;;;5082029;28;20115;-76
2022/09/12 05:56:38;;;;;;;8.15;5.55;;;22.60;62.20;;;;;;5078625;28;20039;-78
2022/09/12 05:59:06;;;;;;;8.55;5.75;;;22.80;62.00;;;;;;5075492;28;20468;-78
2022/09/12 06:01:33;;;;;;;9.52;6.45;;;22.80;61.70;;;;;;5064835;28;20028;-85
2022/09/12 06:04:01;;;;;;;8.13;5.78;;;22.80;61.90;;;;;;5063884;28;20070;-80
2022/09/12 06:06:28;;;;;;;8.60;5.68;;;23.00;61.50;;;;;;5092410;28;20028;-80
2022/09/12 06:09:02;;;;;;;7.60;5.53;;;23.10;61.30;;;;;;5065992;28;20024;-90
2022/09/12 06:11:31;;;;;;;7.85;6.10;;;22.90;61.90;;;;;;5089933;28;20378;-82
2022/09/12 06:13:58;;;;;;;9.48;6.18;;;22.90;61.70;;;;;;5075746;28;20024;-93
2022/09/12 06:16:26;;;;;;;7.75;6.00;;;22.60;62.60;;;;;;5089605;28;20051;-85
2022/09/12 06:19:06;;;;;;;8.98;6.25;;;22.60;62.70;;;;;;5067340;28;20479;-80
2022/09/12 06:21:34;;;;;;;;;;;22.60;62.90;;;;;;5078865;28;20032;-84
2022/09/12 06:24:00;;;;;;;7.93;5.95;;;22.80;62.70;;;;;;5076140;28;19982;-91
2022/09/12 06:26:26;;;;;;;8.35;6.15;;;22.70;62.40;;;;;;5068706;28;20042;-81
2022/09/12 06:28:54;;;;;;;7.68;6.30;;;22.80;62.90;;;;;;5087280;28;20037;-83
2022/09/12 06:31:24;;;;;;;8.63;6.00;;;22.90;63.00;;;;;;5094571;28;20382;-77
2022/09/12 06:33:51;;;;;;;8.57;6.32;;;23.30;62.40;;;;;;5090865;28;20023;-79
2022/09/12 06:36:21;;;;;;;7.70;6.07;;;23.30;61.40;;;;;;5077824;28;20035;-78
2022/09/12 06:38:50;;;;;;;7.50;5.45;;;23.50;61.60;;;;;;5071281;28;20024;-83
2022/09/12 06:41:16;;;;;;;7.28;5.25;;;23.70;61.20;;;;;;5091688;28;20091;-79
2022/09/12 06:43:42;;;;;;;8.30;6.00;;;23.50;60.50;;;;;;5076091;28;20043;-85
2022/09/12 06:46:09;;;;;;;11.88;6.68;;;23.10;61.70;;;;;;5094501;28;20024;-79
2022/09/12 06:48:35;;;;;;;11.77;7.20;;;23.20;61.90;;;;;;5094251;28;20039;-85
2022/09/12 06:51:08;;;;;;;8.77;6.25;;;23.20;61.70;;;;;;5076094;28;20032;-90
2022/09/12 06:53:35;;;;;;;7.75;5.30;;;23.30;61.50;;;;;;5071352;28;20103;-78
2022/09/12 06:56:09;;;;;;;10.68;7.60;;;23.60;61.30;;;;;;5087657;28;20106;-78
2022/09/12 06:58:35;;;;;;;8.82;6.47;;;23.70;60.90;;;;;;4723132;28;9999890;-76
2022/09/12 07:01:09;;;;;;;7.35;5.63;;;23.80;61.10;;;;;;5072827;28;20024;-87
2022/09/12 07:03:36;;;;;;;11.07;6.32;;;24.10;60.80;;;;;;5068226;28;20118;-76
2022/09/12 07:06:04;;;;;;;8.00;5.57;;;24.40;60.50;;;;;;5059062;28;20494;-84
2022/09/12 07:08:30;;;;;;;7.90;4.78;;;24.30;60.40;;;;;;5074281;28;20020;-79
2022/09/12 07:10:57;;;;;;;8.27;5.30;;;24.50;59.90;;;;;;5073870;28;20046;-79
2022/09/12 07:13:24;;;;;;;6.28;5.07;;;24.60;58.90;;;;;;5070417;28;20063;-77
2022/09/12 07:15:50;;;;;;;7.43;5.15;;;24.40;59.70;;;;;;5063327;28;20039;-82
2022/09/12 07:18:16;;;;;;;7.25;5.43;;;24.40;59.70;;;;;;5091108;28;20031;-78
2022/09/12 07:20:42;;;;;;;7.00;5.55;;;24.50;59.80;;;;;;5071817;28;20032;-78
2022/09/12 07:23:08;;;;;;;7.80;5.25;;;24.70;59.10;;;;;;5064912;28;20040;-75
2022/09/12 07:25:33;;;;;;;7.22;5.32;;;24.40;59.10;;;;;;5076326;28;20474;-80
2022/09/12 07:27:59;;;;;;;9.23;5.57;;;24.20;60.10;;;;;;5078745;28;20024;-88
2022/09/12 07:30:25;;;;;;;6.40;4.88;;;24.10;60.50;;;;;;5069033;28;20081;-75
2022/09/12 07:32:54;;;;;;;6.35;4.78;;;24.50;60.30;;;;;;5076201;28;20062;-77
2022/09/12 07:35:25;;;;;;;6.47;4.90;;;24.80;59.40;;;;;;5058934;28;20032;-79
2022/09/12 07:37:51;;;;;;;6.15;4.82;;;25.10;58.80;;;;;;5056326;28;20387;-80
2022/09/12 07:40:16;;;;;;;7.03;5.10;;;25.10;58.00;;;;;;5069175;28;20498;-79
2022/09/12 07:42:46;;;;;;;5.93;4.78;;;24.80;59.20;;;;;;5054730;28;20459;-77
2022/09/12 07:45:12;;;;;;;6.80;5.05;;;24.60;58.30;;;;;;5065464;28;20113;-82
2022/09/12 07:47:39;;;;;;;7.88;6.30;;;24.40;58.80;;;;;;5054736;28;20107;-76
2022/09/12 07:50:05;;;;;;;7.03;5.00;;;24.30;59.90;;;;;;5068342;28;20504;-83
2022/09/12 07:52:31;;;;;;;7.15;4.82;;;24.40;60.00;;;;;;5093618;28;20028;-81
2022/09/12 07:54:58;;;;;;;7.75;4.90;;;24.10;60.20;;;;;;5092652;28;20055;-82
2022/09/12 07:57:24;;;;;;;5.57;4.53;;;24.10;59.40;;;;;;5069412;28;20090;-81
2022/09/12 07:59:53;;;;;;;5.80;4.30;;;23.50;61.20;;;;;;5080127;28;20024;-90
2022/09/12 08:02:19;;;;;;;6.47;4.70;;;24.10;61.40;;;;;;5090600;28;20478;-81
2022/09/12 08:04:46;;;;;;;7.68;4.82;;;24.60;60.00;;;;;;5054984;28;20113;-79
2022/09/12 08:07:11;;;;;;;6.88;4.80;;;24.80;59.60;;;;;;5071887;28;20028;-84
2022/09/12 08:09:37;;;;;;;8.52;4.78;;;24.90;59.60;;;;;;5073574;28;20024;-77
2022/09/12 08:12:03;;;;;;;5.32;4.03;;;25.10;59.20;;;;;;5086779;28;20016;-83
2022/09/12 08:14:29;;;;;;;6.35;4.50;;;25.30;58.10;;;;;;5053142;28;20017;-84
2022/09/12 08:16:55;;;;;;;8.10;4.10;;;25.30;57.70;;;;;;5055198;28;20090;-78
2022/09/12 08:19:21;;;;;;;5.38;4.03;;;25.80;57.70;;;;;;5057311;28;20027;-84
2022/09/12 08:21:47;;;;;;;5.55;3.75;;;26.00;56.70;;;;;;5070611;28;20490;-80
2022/09/12 08:24:16;;;;;;;8.60;4.18;;;26.00;56.30;;;;;;5077812;28;20040;-87
2022/09/12 08:26:42;;;;;;;8.18;3.60;;;25.90;56.00;;;;;;5074546;28;20023;-80
2022/09/12 08:29:08;;;;;;;6.88;3.97;;;25.90;55.40;;;;;;5091333;28;20024;-80
2022/09/12 08:31:41;;;;;;;5.30;3.60;;;25.80;54.80;;;;;;5077243;28;20472;-79
2022/09/12 08:34:07;;;;;;;5.60;3.75;;;25.70;56.20;;;;;;5096207;28;20024;-83
2022/09/12 08:36:34;;;;;;;6.93;4.10;;;26.00;55.70;;;;;;5096368;28;20024;-79
2022/09/12 08:39:03;;;;;;;4.70;3.65;;;26.10;55.40;;;;;;5094315;28;20020;-78
2022/09/12 08:41:34;;;;;;;4.97;3.88;;;25.90;55.80;;;;;;5090489;28;20103;-81
2022/09/12 08:44:31;;;;;;;6.25;3.88;;;26.00;56.60;;;;;;5078094;28;20024;-82
2022/09/12 08:47:02;;;;;;;5.53;3.58;;;26.10;55.20;;;;;;5096144;28;20066;-78
2022/09/12 08:49:34;;;;;;;5.22;3.63;;;26.20;56.70;;;;;;5095869;28;20032;-84
2022/09/12 08:52:23;;;;;;;4.75;3.50;;;26.50;55.20;;;;;;5096387;28;20054;-85
2022/09/12 08:54:49;;;;;;;7.00;3.50;;;26.30;54.10;;;;;;5077671;28;20024;-79
2022/09/12 08:57:15;;;;;;;5.10;3.30;;;26.10;53.90;;;;;;5078050;28;20026;-81
2022/09/12 08:59:45;;;;;;;5.93;3.63;;;26.20;54.80;;;;;;5077748;28;20351;-80
2022/09/12 09:02:45;;;;;;;7.82;3.63;;;26.50;54.70;;;;;;5095731;28;20012;-92
2022/09/12 09:05:27;;;;;;;4.37;3.30;;;26.60;54.20;;;;;;5077467;28;20043;-92
2022/09/12 09:08:00;;;;;;;4.95;3.45;;;26.30;54.30;;;;;;5077919;28;20119;-81
2022/09/12 09:10:37;;;;;;;4.55;3.40;;;26.00;54.10;;;;;;5077283;28;20116;-78
2022/09/12 09:14:46;;;;;;;5.15;3.30;;;26.40;54.20;;;;;;5095568;28;20016;-82
2022/09/12 09:16:29;;;;;;;4.38;3.20;;;26.60;53.30;;;;;;5095400;28;20035;-78
2022/09/12 09:19:00;;;;;;;5.03;3.47;;;26.70;53.90;;;;;;5095597;28;20444;-81
2022/09/12 09:21:40;;;;;;;6.47;3.28;;;27.00;53.00;;;;;;5077295;28;20024;-81
2022/09/12 09:24:15;;;;;;;5.45;3.83;;;27.10;53.60;;;;;;5077284;28;20123;-80
2022/09/12 09:27:05;;;;;;;8.52;4.10;;;27.30;54.20;;;;;;5077444;28;20454;-80
2022/09/12 09:29:57;;;;;;;5.13;3.37;;;27.60;53.80;;;;;;5094490;28;20032;-85
2022/09/12 09:32:42;;;;;;;5.57;3.22;;;27.30;52.70;;;;;;5072076;28;20743;-81
2022/09/12 09:35:17;;;;;;;4.88;3.22;;;27.30;53.00;;;;;;5074460;28;20028;-80
2022/09/12 09:37:56;;;;;;;4.05;3.20;;;27.60;53.20;;;;;;5095130;28;20024;-80
2022/09/12 09:40:37;;;;;;;5.22;3.45;;;27.60;53.30;;;;;;4386409;28;9999922;-84
2022/09/12 09:43:15;;;;;;;4.80;3.40;;;27.80;52.70;;;;;;5075507;28;20016;-78
2022/09/12 09:45:40;;;;;;;4.22;2.95;;;28.00;52.90;;;;;;5094030;28;20039;-77
2022/09/12 09:48:09;;;;;;;4.85;2.97;;;28.30;52.10;;;;;;5094138;28;20032;-80
2022/09/12 09:50:36;;;;;;;4.82;2.90;;;28.00;52.00;;;;;;5094705;28;20386;-87
2022/09/12 09:53:02;;;;;;;4.88;2.92;;;27.70;51.20;;;;;;5094654;28;20043;-77
2022/09/12 09:55:37;;;;;;;5.78;3.00;;;27.40;51.50;;;;;;5077047;28;20482;-84
2022/09/12 09:58:03;;;;;;;5.18;3.00;;;27.80;52.10;;;;;;5094818;28;20066;-82
2022/09/12 10:00:30;;;;;;;7.20;3.67;;;27.70;51.30;;;;;;5094538;28;20458;-79
2022/09/12 10:03:09;;;;;;;6.22;2.50;;;27.50;52.10;;;;;;5094168;28;20055;-78
2022/09/12 10:06:00;;;;;;;6.90;2.95;;;27.60;51.20;;;;;;5094282;28;20031;-78
2022/09/12 10:08:26;;;;;;;5.90;3.17;;;27.90;52.00;;;;;;5093830;28;20032;-85
2022/09/12 10:11:03;;;;;;;4.47;2.60;;;28.30;51.20;;;;;;5094448;28;20035;-84
2022/09/12 10:13:32;;;;;;;5.28;3.63;;;28.00;50.60;;;;;;5076290;28;20111;-82
2022/09/12 10:16:02;;;;;;;6.72;2.60;;;27.80;51.90;;;;;;5076751;28;20035;-78
2022/09/12 10:18:41;;;;;;;4.68;2.60;;;27.80;50.50;;;;;;5094231;28;20055;-77
2022/09/12 10:21:49;;;;;;;4.30;2.70;;;28.00;52.10;;;;;;5094047;28;20035;-80
2022/09/12 10:24:25;;;;;;;4.30;2.90;;;28.50;51.60;;;;;;5065411;28;20071;-84
2022/09/12 10:26:57;;;;;;;4.50;2.80;;;28.30;52.40;;;;;;5093843;28;20024;-79
2022/09/12 10:29:30;;;;;;;4.60;2.90;;;28.50;51.50;;;;;;5075496;28;20082;-77
2022/09/12 10:32:03;;;;;;;4.93;2.70;;;28.60;51.00;;;;;;5076062;28;20500;-81
2022/09/12 10:34:43;;;;;;;4.53;2.90;;;28.60;50.80;;;;;;5093443;28;20028;-77
2022/09/12 10:37:25;;;;;;;4.13;2.80;;;28.70;51.80;;;;;;5093985;28;20020;-76
2022/09/12 10:39:57;;;;;;;4.20;2.88;;;29.20;51.50;;;;;;5074822;28;20126;-84
2022/09/12 10:42:52;;;;;;;3.72;2.50;;;28.80;51.20;;;;;;5093532;28;20100;-86
2022/09/12 10:45:28;;;;;;;4.18;2.50;;;27.90;51.10;;;;;;5075327;28;20078;-85
2022/09/12 10:47:58;;;;;;;4.20;2.50;;;27.70;51.70;;;;;;5094140;28;20067;-81
2022/09/12 10:50:41;;;;;;;3.97;2.45;;;27.80;50.70;;;;;;5075614;28;20024;-84
2022/09/12 10:53:23;;;;;;;4.38;2.47;;;27.90;52.10;;;;;;5075843;28;20028;-88
2022/09/12 10:56:11;;;;;;;4.65;2.65;;;27.90;52.00;;;;;;5093805;28;20024;-88
2022/09/12 10:59:01;;;;;;;5.05;2.92;;;28.00;51.10;;;;;;5093804;28;20070;-89
2022/09/12 11:01:41;;;;;;;6.93;2.87;;;27.90;51.10;;;;;;5075532;28;20085;-90
2022/09/12 11:04:32;;;;;;;4.18;2.90;;;27.40;52.20;;;;;;5093254;28;20147;-84
2022/09/12 11:07:29;;;;;;;4.90;2.90;;;26.90;52.30;;;;;;5084285;28;20038;-81
2022/09/12 11:09:55;;;;;;;4.15;2.90;;;27.10;52.90;;;;;;5075507;28;20039;-81
2022/09/12 11:12:31;;;;;;;4.63;3.17;;;27.10;52.00;;;;;;5093471;28;20479;-78
2022/09/12 11:15:34;;;;;;;5.68;2.90;;;27.00;52.40;;;;;;5074966;28;20183;-80
2022/09/12 11:18:13;;;;;;;4.60;2.67;;;26.90;52.50;;;;;;5075178;28;20390;-86
2022/09/12 11:21:10;;;;;;;5.15;2.80;;;26.90;52.60;;;;;;5093286;28;20028;-79
2022/09/12 11:23:58;;;;;;;3.95;2.58;;;26.80;52.40;;;;;;5093297;28;20085;-79
2022/09/12 11:26:45;;;;;;;4.40;2.80;;;26.80;52.40;;;;;;5075258;28;20032;-89
2022/09/12 11:29:48;;;;;;;3.83;2.40;;;26.40;51.60;;;;;;5092948;28;20161;-79
2022/09/12 11:32:14;;;;;;;5.28;2.63;;;26.60;52.00;;;;;;5074824;28;20382;-79
2022/09/12 11:34:52;;;;;;;3.75;2.78;;;26.80;52.00;;;;;;5092919;28;20020;-83
2022/09/12 11:37:20;;;;;;;4.05;2.60;;;27.30;51.70;;;;;;5075112;28;20050;-79
2022/09/12 11:39:51;;;;;;;3.90;2.78;;;27.20;51.90;;;;;;5093142;28;20023;-85
2022/09/12 11:42:33;;;;;;;3.70;2.65;;;27.20;52.00;;;;;;5092689;28;20021;-79
2022/09/12 11:45:27;;;;;;;4.85;2.65;;;27.40;52.10;;;;;;5074818;28;20425;-80
2022/09/12 11:47:56;;;;;;;3.75;2.47;;;27.60;51.80;;;;;;5079863;28;20108;-78
2022/09/12 11:50:28;;;;;;;4.82;2.40;;;27.70;50.90;;;;;;5092651;28;20111;-81
2022/09/12 11:53:11;;;;;;;3.80;2.55;;;27.70;51.10;;;;;;5077719;28;20020;-81
2022/09/12 11:56:04;;;;;;;3.78;2.58;;;27.80;50.90;;;;;;5078227;28;20032;-80
2022/09/12 11:58:29;;;;;;;3.55;2.30;;;27.80;50.80;;;;;;5078989;28;20042;-77
2022/09/12 12:01:27;;;;;;;3.92;2.50;;;27.70;50.70;;;;;;5096726;28;20028;-81
2022/09/12 12:03:55;;;;;;;4.45;2.33;;;27.50;50.10;;;;;;5061709;28;20064;-77
2022/09/12 12:06:32;;;;;;;4.57;2.20;;;27.00;49.50;;;;;;5096738;28;20435;-78
2022/09/12 12:08:58;;;;;;;3.45;2.20;;;26.80;49.70;;;;;;5097122;28;20061;-85
2022/09/12 12:11:36;;;;;;;3.53;2.20;;;26.40;50.00;;;;;;5096664;28;20028;-79
2022/09/12 12:14:12;;;;;;;3.38;2.28;;;26.20;50.40;;;;;;5096696;28;20031;-84
2022/09/12 12:16:38;;;;;;;3.85;2.25;;;26.30;50.20;;;;;;5078418;28;20024;-76
2022/09/12 12:19:30;;;;;;;4.70;2.30;;;26.50;50.20;;;;;;5096790;28;20059;-80
2022/09/12 12:22:05;;;;;;;2.90;2.03;;;26.80;49.70;;;;;;5096422;28;20089;-82
2022/09/12 12:24:32;;;;;;;6.15;2.35;;;27.20;49.30;;;;;;5096292;28;20039;-80
2022/09/12 12:27:03;;;;;;;3.28;2.10;;;27.40;48.40;;;;;;5096528;28;20016;-84
2022/09/12 12:29:38;;;;;;;3.80;2.30;;;27.70;48.50;;;;;;5096337;28;20047;-82
2022/09/12 12:32:04;;;;;;;3.70;2.20;;;27.20;47.90;;;;;;5078254;28;20012;-86
2022/09/12 12:34:35;;;;;;;3.33;2.10;;;26.80;49.10;;;;;;5096597;28;20090;-85
2022/09/12 12:37:19;;;;;;;3.30;2.20;;;27.00;48.90;;;;;;5078205;28;20530;-87
2022/09/12 12:39:49;;;;;;;4.60;2.33;;;27.00;48.30;;;;;;5078510;28;20165;-84
2022/09/12 12:42:35;;;;;;;3.85;2.20;;;26.80;48.50;;;;;;5096289;28;20031;-84
2022/09/12 12:45:21;;;;;;;3.03;1.88;;;26.80;48.90;;;;;;5095885;28;20032;-78
2022/09/12 12:47:50;;;;;;;3.72;2.08;;;26.80;49.20;;;;;;5082037;28;20086;-83
2022/09/12 12:50:18;;;;;;;4.30;2.10;;;27.10;48.80;;;;;;5077977;28;20024;-86
2022/09/12 12:52:49;;;;;;;3.10;2.10;;;27.40;48.00;;;;;;5078438;28;20115;-87
2022/09/12 12:55:22;;;;;;;3.30;2.10;;;27.40;48.60;;;;;;5077863;28;20012;-84
2022/09/12 12:57:59;;;;;;;5.28;2.42;;;27.50;48.20;;;;;;5077347;28;20030;-79
2022/09/12 13:00:28;;;;;;;5.03;2.20;;;27.50;47.60;;;;;;5095686;28;20410;-86
2022/09/12 13:02:57;;;;;;;3.47;2.10;;;27.50;48.90;;;;;;5095129;28;20032;-81
2022/09/12 13:05:25;;;;;;;5.10;2.22;;;27.70;48.10;;;;;;5077557;28;20031;-86
2022/09/12 13:08:17;;;;;;;3.47;2.17;;;27.60;47.70;;;;;;5077610;28;20547;-77
2022/09/12 13:11:13;;;;;;;3.72;2.05;;;27.40;48.30;;;;;;5086439;28;20043;-79
2022/09/12 13:13:49;;;;;;;3.50;2.10;;;27.40;48.60;;;;;;5093521;28;20028;-79